createdAt,value
2022-11-28T00:01:42.906Z,7.11
2022-11-28T00:04:10.759Z,7.04
2022-11-28T00:06:40.139Z,7.03
2022-11-28T00:09:08.398Z,7.13
2022-11-28T00:11:35.897Z,7.09
2022-11-28T00:14:03.427Z,7.12
2022-11-28T00:16:30.940Z,7.10
2022-11-28T00:19:00.887Z,7.25
2022-11-28T00:21:28.427Z,7.04
2022-11-28T00:23:55.883Z,7.07
2022-11-28T00:26:25.622Z,7.14
2022-11-28T00:28:53.557Z,7.09
2022-11-28T00:31:23.084Z,7.23
2022-11-28T00:33:51.015Z,7.04
2022-11-28T00:36:20.699Z,7.11
2022-11-28T00:38:48.325Z,7.17
2022-11-28T00:41:17.012Z,7.21
2022-11-28T00:43:46.050Z,7.26
2022-11-28T00:46:14.875Z,7.15
2022-11-28T00:48:42.527Z,7.11
2022-11-28T00:51:12.013Z,7.02
2022-11-28T00:53:42.435Z,6.94
2022-11-28T00:56:11.701Z,6.91
2022-11-28T00:58:39.938Z,6.96
2022-11-28T01:01:11.563Z,6.98
2022-11-28T01:03:39.603Z,6.99
2022-11-28T01:06:07.871Z,6.94
2022-11-28T01:08:35.616Z,6.87
2022-11-28T01:11:05.034Z,6.76
2022-11-28T01:13:32.571Z,6.70
2022-11-28T01:16:00.195Z,6.73
2022-11-28T01:18:27.808Z,6.72
2022-11-28T01:20:55.318Z,6.68
2022-11-28T01:23:22.850Z,6.77
2022-11-28T01:25:50.353Z,6.65
2022-11-28T01:28:19.164Z,6.62
2022-11-28T01:30:46.667Z,6.62
2022-11-28T01:33:14.148Z,6.50
2022-11-28T01:35:41.672Z,6.61
2022-11-28T01:38:09.198Z,6.59
2022-11-28T01:40:36.683Z,6.63
2022-11-28T01:43:04.199Z,6.56
2022-11-28T01:45:33.888Z,6.70
2022-11-28T01:48:04.128Z,6.79
2022-11-28T01:50:32.788Z,6.71
2022-11-28T01:53:03.827Z,6.66
2022-11-28T01:55:33.679Z,6.64
2022-11-28T01:58:01.336Z,6.63
2022-11-28T02:00:28.879Z,6.69
2022-11-28T02:03:05.531Z,6.60
2022-11-28T02:05:33.551Z,6.68
2022-11-28T02:08:01.105Z,6.64
2022-11-28T02:10:33.220Z,6.55
2022-11-28T02:13:12.037Z,6.57
2022-11-28T02:15:52.520Z,6.58
2022-11-28T02:18:36.557Z,6.59
2022-11-28T02:21:18.255Z,6.63
2022-11-28T02:24:04.183Z,6.64
2022-11-28T02:27:09.711Z,6.68
2022-11-28T02:30:12.626Z,6.61
2022-11-28T02:32:56.104Z,6.52
2022-11-28T02:35:27.979Z,6.68
2022-11-28T02:38:05.148Z,6.61
2022-11-28T02:40:38.495Z,6.69
2022-11-28T02:43:11.162Z,6.71
2022-11-28T02:45:42.874Z,6.58
2022-11-28T02:48:15.119Z,6.68
2022-11-28T02:50:47.035Z,6.61
2022-11-28T02:53:16.586Z,6.61
2022-11-28T02:55:44.706Z,6.59
2022-11-28T02:58:12.841Z,6.60
2022-11-28T03:00:43.431Z,6.46
2022-11-28T03:03:39.421Z,6.63
2022-11-28T03:06:12.521Z,6.50
2022-11-28T03:08:53.533Z,6.57
2022-11-28T03:11:24.434Z,6.56
2022-11-28T03:13:55.537Z,6.48
2022-11-28T03:16:28.045Z,6.51
2022-11-28T03:19:04.576Z,6.41
2022-11-28T03:21:38.794Z,6.38
2022-11-28T03:24:11.903Z,6.42
2022-11-28T03:26:46.136Z,6.48
2022-11-28T03:29:16.398Z,6.42
2022-11-28T03:31:48.302Z,6.37
2022-11-28T03:34:20.953Z,6.52
2022-11-28T03:36:50.528Z,6.56
2022-11-28T03:39:21.538Z,6.48
2022-11-28T03:41:52.249Z,6.53
2022-11-28T03:44:23.534Z,6.52
2022-11-28T03:46:51.538Z,6.41
2022-11-28T03:49:23.418Z,6.43
2022-11-28T03:51:54.620Z,6.39
2022-11-28T03:54:25.880Z,6.51
2022-11-28T03:56:57.823Z,6.58
2022-11-28T03:59:27.606Z,6.52
2022-11-28T04:02:01.638Z,6.50
2022-11-28T04:04:34.472Z,6.39
2022-11-28T04:07:06.567Z,6.35
2022-11-28T04:09:39.085Z,6.29
2022-11-28T04:12:11.587Z,6.34
2022-11-28T04:14:42.309Z,6.24
2022-11-28T04:17:13.267Z,6.22
2022-11-28T04:19:44.930Z,6.36
2022-11-28T04:22:16.298Z,6.31
2022-11-28T04:24:48.098Z,6.31
2022-11-28T04:27:18.871Z,6.35
2022-11-28T04:29:48.943Z,6.43
2022-11-28T04:32:18.996Z,6.37
2022-11-28T04:34:51.827Z,6.33
2022-11-28T04:37:20.097Z,6.37
2022-11-28T04:39:48.918Z,6.47
2022-11-28T04:42:18.822Z,6.39
2022-11-28T04:44:48.679Z,6.35
2022-11-28T04:47:17.027Z,6.45
2022-11-28T04:49:46.231Z,6.40
2022-11-28T04:52:19.988Z,6.28
2022-11-28T04:54:53.815Z,6.30
2022-11-28T04:57:25.414Z,6.27
2022-11-28T04:59:56.357Z,6.53
2022-11-28T05:02:26.294Z,6.45
2022-11-28T05:04:55.569Z,6.43
2022-11-28T05:07:25.444Z,6.39
2022-11-28T05:09:53.111Z,6.32
2022-11-28T05:12:20.622Z,6.34
2022-11-28T05:14:48.124Z,6.34
2022-11-28T05:17:15.599Z,6.32
2022-11-28T05:19:43.075Z,6.21
2022-11-28T05:22:10.542Z,6.20
2022-11-28T05:24:39.418Z,6.21
2022-11-28T05:27:07.599Z,6.24
2022-11-28T05:29:35.167Z,6.31
2022-11-28T05:32:02.682Z,6.27
2022-11-28T05:34:31.060Z,6.42
2022-11-28T05:36:58.563Z,6.38
2022-11-28T05:39:26.864Z,6.39
2022-11-28T05:41:56.975Z,6.35
2022-11-28T05:44:27.011Z,6.35
2022-11-28T05:46:55.020Z,6.33
2022-11-28T05:49:23.755Z,6.35
2022-11-28T05:51:51.236Z,6.46
2022-11-28T05:54:18.747Z,6.42
2022-11-28T05:56:46.288Z,6.52
2022-11-28T05:59:15.187Z,6.49
2022-11-28T06:01:42.740Z,6.46
2022-11-28T06:04:10.374Z,6.39
2022-11-28T06:06:38.451Z,6.43
2022-11-28T06:09:06.731Z,6.33
2022-11-28T06:11:35.210Z,6.38
2022-11-28T06:14:03.184Z,6.40
2022-11-28T06:16:32.530Z,6.44
2022-11-28T06:21:56.067Z,6.60
2022-11-28T06:24:23.931Z,6.61
2022-11-28T06:26:51.370Z,6.58
2022-11-28T06:29:18.852Z,6.56
2022-11-28T06:31:47.689Z,6.43
2022-11-28T06:34:15.202Z,6.53
2022-11-28T06:36:42.637Z,6.41
2022-11-28T06:39:12.863Z,6.39
2022-11-28T06:41:40.346Z,6.41
2022-11-28T06:44:08.110Z,6.45
2022-11-28T06:46:35.542Z,6.50
2022-11-28T06:49:04.400Z,6.41
2022-11-28T06:51:31.876Z,6.39
2022-11-28T06:53:59.367Z,6.51
2022-11-28T06:56:27.042Z,6.52
2022-11-28T06:58:55.551Z,6.51
2022-11-28T07:01:25.797Z,6.30
2022-11-28T07:03:54.325Z,6.29
2022-11-28T07:06:24.100Z,6.30
2022-11-28T07:08:52.037Z,6.32
2022-11-28T07:11:21.168Z,6.34
2022-11-28T07:13:49.951Z,6.41
2022-11-28T07:16:20.144Z,6.36
2022-11-28T07:18:47.710Z,6.32
2022-11-28T07:21:15.499Z,6.40
2022-11-28T07:23:44.963Z,6.33
2022-11-28T07:26:13.874Z,6.25
2022-11-28T07:28:41.874Z,6.27
2022-11-28T07:31:11.488Z,6.24
2022-11-28T07:33:39.422Z,6.24
2022-11-28T07:36:12.894Z,6.28
2022-11-28T07:38:40.398Z,6.26
2022-11-28T07:41:10.662Z,6.36
2022-11-28T07:43:38.558Z,6.34
2022-11-28T07:46:07.819Z,6.35
2022-11-28T07:48:35.541Z,6.32
2022-11-28T07:51:06.990Z,6.32
2022-11-28T07:53:34.454Z,6.34
2022-11-28T07:56:03.481Z,6.30
2022-11-28T07:58:34.427Z,6.38
2022-11-28T08:01:02.022Z,6.40
2022-11-28T08:03:29.512Z,6.40
2022-11-28T08:06:02.950Z,6.33
2022-11-28T08:08:30.886Z,6.39
2022-11-28T08:10:58.936Z,6.21
2022-11-28T08:13:26.726Z,6.22
2022-11-28T08:15:55.791Z,6.35
2022-11-28T08:18:23.506Z,6.40
2022-11-28T08:20:51.427Z,6.39
2022-11-28T08:23:18.912Z,6.32
2022-11-28T08:25:46.363Z,6.40
2022-11-28T08:28:14.044Z,6.29
2022-11-28T08:30:41.559Z,6.45
2022-11-28T08:33:10.406Z,6.40
2022-11-28T08:35:40.234Z,6.38
2022-11-28T08:38:07.690Z,6.45
2022-11-28T08:40:35.149Z,6.42
2022-11-28T08:43:02.583Z,6.24
2022-11-28T08:45:30.120Z,6.33
2022-11-28T08:47:59.575Z,6.33
2022-11-28T08:50:28.467Z,6.38
2022-11-28T08:52:56.125Z,6.39
2022-11-28T08:55:31.717Z,6.45
2022-11-28T08:57:59.863Z,6.41
2022-11-28T09:00:27.530Z,6.51
2022-11-28T09:02:54.991Z,6.51
2022-11-28T09:05:23.230Z,6.51
2022-11-28T09:07:52.035Z,6.62
2022-11-28T09:10:19.554Z,6.46
2022-11-28T09:12:46.983Z,6.48
2022-11-28T09:15:14.626Z,6.40
2022-11-28T09:17:42.082Z,6.48
2022-11-28T09:20:10.743Z,6.61
2022-11-28T09:22:38.204Z,6.51
2022-11-28T09:25:08.330Z,6.60
2022-11-28T09:27:35.779Z,6.55
2022-11-28T09:30:03.366Z,6.48
2022-11-28T09:32:30.931Z,6.58
2022-11-28T09:34:58.439Z,6.63
2022-11-28T09:37:25.971Z,6.70
2022-11-28T09:40:11.984Z,6.76
2022-11-28T09:42:44.030Z,6.71
2022-11-28T09:45:13.975Z,6.80
2022-11-28T09:47:44.375Z,6.82
2022-11-28T09:50:15.348Z,6.77
2022-11-28T09:52:48.172Z,6.85
2022-11-28T09:55:19.838Z,6.77
2022-11-28T09:57:50.142Z,6.69
2022-11-28T10:00:20.158Z,6.68
2022-11-28T10:03:02.531Z,6.72
2022-11-28T10:05:36.370Z,6.52
2022-11-28T10:08:19.122Z,6.68
2022-11-28T10:10:53.684Z,6.69
2022-11-28T10:13:41.170Z,6.76
2022-11-28T10:16:22.061Z,6.77
2022-11-28T10:18:52.045Z,6.80
2022-11-28T10:21:25.855Z,6.81
2022-11-28T10:23:55.991Z,6.79
2022-11-28T10:26:29.721Z,6.68
2022-11-28T10:29:00.896Z,6.67
2022-11-28T10:31:32.558Z,6.74
2022-11-28T10:34:03.395Z,6.67
2022-11-28T10:36:35.502Z,6.71
2022-11-28T10:39:11.168Z,6.65
2022-11-28T10:41:42.430Z,6.64
2022-11-28T10:44:21.333Z,6.86
2022-11-28T10:46:56.687Z,6.65
2022-11-28T10:49:34.193Z,6.76
2022-11-28T10:52:08.084Z,6.88
2022-11-28T10:54:49.498Z,6.74
2022-11-28T10:57:22.737Z,6.72
2022-11-28T11:00:00.630Z,6.78
2022-11-28T11:02:34.538Z,6.91
2022-11-28T11:05:02.155Z,6.84
2022-11-28T11:07:31.486Z,6.78
2022-11-28T11:10:02.876Z,6.85
2022-11-28T11:12:32.683Z,6.87
2022-11-28T11:15:16.186Z,6.87
2022-11-28T11:17:43.791Z,6.70
2022-11-28T11:20:36.229Z,6.76
2022-11-28T11:23:13.690Z,6.75
2022-11-28T11:25:48.087Z,6.75
2022-11-28T11:28:28.043Z,6.70
2022-11-28T11:31:01.571Z,6.86
2022-11-28T11:33:34.786Z,6.67
2022-11-28T11:36:04.610Z,6.67
2022-11-28T11:38:37.970Z,6.63
2022-11-28T11:41:21.563Z,6.65
2022-11-28T11:43:49.082Z,6.79
2022-11-28T11:46:18.052Z,6.71
2022-11-28T11:48:47.243Z,6.83
2022-11-28T11:51:25.755Z,6.82
2022-11-28T11:54:04.133Z,6.76
2022-11-28T11:56:33.590Z,6.78
2022-11-28T11:59:02.390Z,6.82
2022-11-28T12:01:31.640Z,6.77
2022-11-28T12:04:08.478Z,6.87
2022-11-28T12:06:44.751Z,6.97
2022-11-28T12:09:17.236Z,6.97
2022-11-28T12:11:48.833Z,6.92
2022-11-28T12:14:27.466Z,6.82
2022-11-28T12:17:25.743Z,6.82
2022-11-28T12:20:03.743Z,6.75
2022-11-28T12:22:36.774Z,6.79
2022-11-28T12:25:11.571Z,6.80
2022-11-28T12:27:54.379Z,6.79
2022-11-28T12:30:27.446Z,6.80
2022-11-28T12:33:05.399Z,6.81
2022-11-28T12:35:39.075Z,6.78
2022-11-28T12:38:13.346Z,7.01
2022-11-28T12:40:52.253Z,6.85
2022-11-28T12:43:31.215Z,6.76
2022-11-28T12:46:06.178Z,6.85
2022-11-28T12:48:45.375Z,6.79
2022-11-28T12:51:23.579Z,6.85
2022-11-28T12:54:01.745Z,6.86
2022-11-28T12:56:38.472Z,6.85
2022-11-28T12:59:11.508Z,6.78
2022-11-28T13:01:48.770Z,6.92
2022-11-28T13:04:30.321Z,6.77
2022-11-28T13:07:04.615Z,6.84
2022-11-28T13:09:34.208Z,6.88
2022-11-28T13:12:12.980Z,6.84
2022-11-28T13:14:47.517Z,6.89
2022-11-28T13:17:24.626Z,6.85
2022-11-28T13:20:01.453Z,6.70
2022-11-28T13:22:34.154Z,6.92
2022-11-28T13:25:04.963Z,6.89
2022-11-28T13:27:37.411Z,6.99
2022-11-28T13:30:14.903Z,6.92
2022-11-28T13:32:47.112Z,6.74
2022-11-28T13:35:17.513Z,6.70
2022-11-28T13:40:41.185Z,6.73
2022-11-28T13:43:17.535Z,6.87
2022-11-28T13:45:46.387Z,6.75
2022-11-28T13:51:45.100Z,6.67
2022-11-28T13:54:44.269Z,6.59
2022-11-28T13:57:21.456Z,6.69
2022-11-28T13:59:52.037Z,6.68
2022-11-28T14:02:23.486Z,6.84
2022-11-28T14:04:51.151Z,6.75
2022-11-28T14:07:31.733Z,6.79
2022-11-28T14:10:13.543Z,6.78
2022-11-28T14:12:46.471Z,6.87
2022-11-28T14:15:23.998Z,6.75
2022-11-28T14:18:18.899Z,6.87
2022-11-28T14:20:56.654Z,6.79
2022-11-28T14:23:30.746Z,6.90
2022-11-28T14:25:58.430Z,6.74
2022-11-28T14:28:27.325Z,6.99
2022-11-28T14:31:02.772Z,6.92
2022-11-28T14:33:35.684Z,6.92
2022-11-28T14:36:23.399Z,6.93
2022-11-28T14:39:35.033Z,6.79
2022-11-28T14:45:44.697Z,6.67
2022-11-28T14:48:18.700Z,6.61
2022-11-28T14:50:48.353Z,6.67
2022-11-28T14:53:52.421Z,6.72
2022-11-28T14:56:28.995Z,6.48
2022-11-28T14:58:59.332Z,6.53
2022-11-28T15:01:37.707Z,6.71
2022-11-28T15:04:29.990Z,6.67
2022-11-28T15:06:59.482Z,6.68
2022-11-28T15:09:30.567Z,6.72
2022-11-28T15:12:11.325Z,6.78
2022-11-28T15:14:38.975Z,6.61
2022-11-28T15:17:07.923Z,6.83
2022-11-28T15:19:39.496Z,6.87
2022-11-28T15:22:06.970Z,7.06
2022-11-28T15:24:35.802Z,6.79
2022-11-28T15:27:23.739Z,6.88
2022-11-28T15:29:55.763Z,6.92
2022-11-28T15:32:23.726Z,6.94
2022-11-28T15:34:58.043Z,7.01
2022-11-28T15:37:29.104Z,6.72
2022-11-28T15:39:56.699Z,6.64
2022-11-28T15:42:29.674Z,6.79
2022-11-28T15:44:59.305Z,6.83
2022-11-28T15:47:27.822Z,6.75
2022-11-28T15:50:03.050Z,6.78
2022-11-28T15:52:31.857Z,6.68
2022-11-28T15:54:59.382Z,6.73
2022-11-28T15:57:32.178Z,6.88
2022-11-28T15:59:59.675Z,6.69
2022-11-28T16:02:32.676Z,6.70
2022-11-28T16:05:05.799Z,6.71
2022-11-28T16:07:37.828Z,6.75
2022-11-28T16:10:17.135Z,6.89
2022-11-28T16:12:46.038Z,6.78
2022-11-28T16:15:18.246Z,6.83
2022-11-28T16:17:45.819Z,6.74
2022-11-28T16:20:21.819Z,6.79
2022-11-28T16:22:49.463Z,6.69
2022-11-28T16:25:22.917Z,6.73
2022-11-28T16:27:53.193Z,6.69
2022-11-28T16:30:29.827Z,6.67
2022-11-28T16:32:58.058Z,6.70
2022-11-28T16:35:27.751Z,6.64
2022-11-28T16:38:05.188Z,6.56
2022-11-28T16:40:33.051Z,6.55
2022-11-28T16:43:04.819Z,6.67
2022-11-28T16:45:33.502Z,6.67
2022-11-28T16:48:08.584Z,6.68
2022-11-28T16:50:36.457Z,6.78
2022-11-28T16:53:05.096Z,6.71
2022-11-28T16:55:44.129Z,6.58
2022-11-28T16:58:15.770Z,6.80
2022-11-28T17:00:45.388Z,6.72
2022-11-28T17:03:41.701Z,6.80
2022-11-28T17:06:15.982Z,6.70
2022-11-28T17:08:43.426Z,6.56
2022-11-28T17:11:11.062Z,6.57
2022-11-28T17:13:39.851Z,6.69
2022-11-28T17:16:09.685Z,6.64
2022-11-28T17:18:37.270Z,6.70
2022-11-28T17:21:04.779Z,6.71
2022-11-28T17:23:32.271Z,6.66
2022-11-28T17:25:59.715Z,6.64
2022-11-28T17:28:29.232Z,6.60
2022-11-28T17:30:58.156Z,6.70
2022-11-28T17:33:25.647Z,6.73
2022-11-28T17:35:54.278Z,6.76
2022-11-28T17:38:21.739Z,6.82
2022-11-28T17:40:49.259Z,6.84
2022-11-28T17:43:18.442Z,6.86
2022-11-28T17:45:47.254Z,6.65
2022-11-28T17:48:17.839Z,6.83
2022-11-28T17:50:46.463Z,6.85
2022-11-28T17:53:15.051Z,6.68
2022-11-28T17:55:43.432Z,6.67
2022-11-28T17:58:16.730Z,6.77
2022-11-28T18:00:44.332Z,6.83
2022-11-28T18:03:12.018Z,6.92
2022-11-28T18:05:42.594Z,6.85
2022-11-28T18:08:10.397Z,6.84
2022-11-28T18:10:37.907Z,6.85
2022-11-28T18:13:05.994Z,6.90
2022-11-28T18:15:35.531Z,6.85
2022-11-28T18:18:04.429Z,6.75
2022-11-28T18:20:32.144Z,6.63
2022-11-28T18:23:03.929Z,6.74
2022-11-28T18:25:31.396Z,6.72
2022-11-28T18:27:59.034Z,6.72
2022-11-28T18:30:26.519Z,6.70
2022-11-28T18:32:53.967Z,6.73
2022-11-28T18:35:21.503Z,6.75
2022-11-28T18:37:48.986Z,6.88
2022-11-28T18:40:17.819Z,6.74
2022-11-28T18:42:45.254Z,6.82
2022-11-28T18:45:13.447Z,6.73
2022-11-28T18:47:40.910Z,6.90
2022-11-28T18:50:09.514Z,6.89
2022-11-28T18:52:37.074Z,6.81
2022-11-28T18:55:04.743Z,6.84
2022-11-28T18:57:34.326Z,6.83
2022-11-28T19:00:03.498Z,6.80
2022-11-28T19:02:31.206Z,6.79
2022-11-28T19:04:58.758Z,6.91
2022-11-28T19:07:26.372Z,6.86
2022-11-28T19:09:53.855Z,6.93
2022-11-28T19:12:21.346Z,6.86
2022-11-28T19:14:51.790Z,6.81
2022-11-28T19:17:19.460Z,6.88
2022-11-28T19:19:47.994Z,6.88
2022-11-28T19:22:15.452Z,6.88
2022-11-28T19:24:42.918Z,6.80
2022-11-28T19:27:14.228Z,6.76
2022-11-28T19:29:42.656Z,6.77
2022-11-28T19:32:12.484Z,6.74
2022-11-28T19:34:39.920Z,6.77
2022-11-28T19:37:07.411Z,6.91
2022-11-28T19:39:34.926Z,6.84
2022-11-28T19:42:02.392Z,6.93
2022-11-28T19:44:30.494Z,6.99
2022-11-28T19:46:57.931Z,6.83
2022-11-28T19:49:27.115Z,7.05
2022-11-28T19:51:55.324Z,6.70
2022-11-28T19:54:22.907Z,6.83
2022-11-28T19:56:50.855Z,6.97
2022-11-28T19:59:19.179Z,6.87
2022-11-28T20:01:49.555Z,6.95
2022-11-28T20:04:17.240Z,7.02
2022-11-28T20:06:46.048Z,7.00
2022-11-28T20:09:14.214Z,6.89
2022-11-28T20:11:43.388Z,6.68
2022-11-28T20:14:13.357Z,6.76
2022-11-28T20:16:41.118Z,6.76
2022-11-28T20:19:09.357Z,6.83
2022-11-28T20:21:36.802Z,6.73
2022-11-28T20:24:08.129Z,6.91
2022-11-28T20:26:38.126Z,6.81
2022-11-28T20:29:05.773Z,6.92
2022-11-28T20:31:35.756Z,6.93
2022-11-28T20:34:04.035Z,6.97
2022-11-28T20:36:32.898Z,6.89
2022-11-28T20:39:00.734Z,6.82
2022-11-28T20:41:29.863Z,6.75
2022-11-28T20:43:59.346Z,6.84
2022-11-28T20:46:30.017Z,6.94
2022-11-28T20:48:58.439Z,6.91
2022-11-28T20:51:27.222Z,6.84
2022-11-28T20:53:55.483Z,6.98
2022-11-28T20:56:24.617Z,7.02
2022-11-28T20:58:53.719Z,6.98
2022-11-28T21:01:23.741Z,7.05
2022-11-28T21:03:52.193Z,7.00
2022-11-28T21:06:20.471Z,6.87
2022-11-28T21:08:48.385Z,6.98
2022-11-28T21:11:36.380Z,6.90
2022-11-28T21:14:07.235Z,6.82
2022-11-28T21:16:35.259Z,6.73
2022-11-28T21:19:04.893Z,6.89
2022-11-28T21:21:33.687Z,6.88
2022-11-28T21:24:02.958Z,6.97
2022-11-28T21:26:35.050Z,6.89
2022-11-28T21:29:09.055Z,6.96
2022-11-28T21:31:38.848Z,6.88
2022-11-28T21:34:06.311Z,6.79
2022-11-28T21:36:33.762Z,6.98
2022-11-28T21:39:02.054Z,7.01
2022-11-28T21:41:30.897Z,6.95
2022-11-28T21:43:58.982Z,7.10
2022-11-28T21:46:28.502Z,7.04
2022-11-28T21:48:57.670Z,7.05
2022-11-28T21:51:28.269Z,7.09
2022-11-28T21:53:57.212Z,7.03
2022-11-28T21:56:24.878Z,7.08
2022-11-28T21:58:52.538Z,7.11
2022-11-28T22:01:21.434Z,7.07
2022-11-28T22:03:50.562Z,7.08
2022-11-28T22:06:19.294Z,7.12
2022-11-28T22:08:48.441Z,7.05
2022-11-28T22:11:16.432Z,6.97
2022-11-28T22:13:45.663Z,7.06
2022-11-28T22:16:16.701Z,7.06
2022-11-28T22:18:44.392Z,7.11
2022-11-28T22:21:49.804Z,7.05
2022-11-28T22:24:05.396Z,6.98
2022-11-28T22:26:34.032Z,6.99
2022-11-28T22:29:03.814Z,7.12
2022-11-28T22:31:34.426Z,7.07
2022-11-28T22:34:02.026Z,7.07
2022-11-28T22:36:31.920Z,7.05
2022-11-28T22:38:59.773Z,7.13
2022-11-28T22:41:33.603Z,7.10
2022-11-28T22:44:03.389Z,7.08
2022-11-28T22:46:31.421Z,7.11
2022-11-28T22:49:02.593Z,7.05
2022-11-28T22:51:33.965Z,7.08
2022-11-28T22:54:02.922Z,7.05
2022-11-28T22:56:31.845Z,6.82
2022-11-28T22:58:59.728Z,7.03
2022-11-28T23:01:29.486Z,7.04
2022-11-28T23:03:57.111Z,6.96
2022-11-28T23:06:26.701Z,6.97
2022-11-28T23:08:55.564Z,7.10
2022-11-28T23:11:24.677Z,6.97
2022-11-28T23:13:52.817Z,7.08
2022-11-28T23:16:21.712Z,6.95
2022-11-28T23:18:51.533Z,6.96
2022-11-28T23:21:20.147Z,6.96
2022-11-28T23:23:48.422Z,7.07
2022-11-28T23:26:18.843Z,6.99
2022-11-28T23:28:46.544Z,7.01
2022-11-28T23:31:16.026Z,7.11
2022-11-28T23:33:44.052Z,7.10
2022-11-28T23:36:15.844Z,7.13
2022-11-28T23:38:43.741Z,7.14
2022-11-28T23:41:11.754Z,7.16
2022-11-28T23:43:40.774Z,7.03
2022-11-28T23:46:09.524Z,6.97
2022-11-28T23:48:37.530Z,7.04
2022-11-28T23:51:06.175Z,6.74
2022-11-28T23:53:33.767Z,7.00
2022-11-28T23:56:03.755Z,7.04
2022-11-28T23:58:31.271Z,7.13
